createdAt,value
2017-08-12T00:00:31.064Z,100.00
2017-08-12T00:01:31.008Z,100.00
2017-08-12T00:02:30.930Z,100.00
2017-08-12T00:03:31.024Z,100.00
2017-08-12T00:04:31.071Z,100.00
2017-08-12T00:05:30.950Z,100.00
2017-08-12T00:06:31.299Z,100.00
2017-08-12T00:07:30.565Z,100.00
2017-08-12T00:08:30.599Z,100.00
2017-08-12T00:09:30.631Z,100.00
2017-08-12T00:10:30.667Z,100.00
2017-08-12T00:11:30.610Z,100.00
2017-08-12T00:12:30.549Z,100.00
2017-08-12T00:13:30.688Z,100.00
2017-08-12T00:14:30.643Z,100.00
2017-08-12T00:15:30.580Z,100.00
2017-08-12T00:16:31.130Z,100.00
2017-08-12T00:17:31.067Z,100.00
2017-08-12T00:18:35.118Z,100.00
2017-08-12T00:19:30.678Z,100.00
2017-08-12T00:20:31.000Z,100.00
2017-08-12T00:21:31.334Z,100.00
2017-08-12T00:22:31.077Z,100.00
2017-08-12T00:23:31.118Z,100.00
2017-08-12T00:24:30.640Z,100.00
2017-08-12T00:25:31.324Z,100.00
2017-08-12T00:26:31.357Z,100.00
2017-08-12T00:27:30.685Z,100.00
2017-08-12T00:28:30.705Z,100.00
2017-08-12T00:29:30.651Z,100.00
2017-08-12T00:30:30.725Z,100.00
2017-08-12T00:31:30.949Z,100.00
2017-08-12T00:32:30.697Z,100.00
2017-08-12T00:33:31.101Z,100.00
2017-08-12T00:34:31.127Z,100.00
2017-08-12T00:35:31.065Z,100.00
2017-08-12T00:36:31.115Z,100.00
2017-08-12T00:37:31.075Z,100.00
2017-08-12T00:38:31.111Z,100.00
2017-08-12T00:39:31.149Z,100.00
2017-08-12T00:40:31.141Z,100.00
2017-08-12T00:41:31.374Z,100.00
2017-08-12T00:42:30.700Z,100.00
2017-08-12T00:43:30.739Z,100.00
2017-08-12T00:44:30.694Z,100.00
2017-08-12T00:45:30.737Z,100.00
2017-08-12T00:46:30.920Z,100.00
2017-08-12T00:47:30.661Z,100.00
2017-08-12T00:48:30.787Z,100.00
2017-08-12T00:49:30.713Z,100.00
2017-08-12T00:50:31.143Z,100.00
2017-08-12T00:51:31.170Z,100.00
2017-08-12T00:52:31.101Z,100.00
2017-08-12T00:53:31.163Z,100.00
2017-08-12T00:54:31.073Z,100.00
2017-08-12T00:55:31.412Z,100.00
2017-08-12T00:56:31.441Z,100.00
2017-08-12T00:57:31.163Z,100.00
2017-08-12T00:58:31.282Z,100.00
2017-08-12T00:59:30.706Z,100.00
2017-08-12T01:02:30.598Z,100.00
2017-08-12T01:02:31.619Z,100.00
2017-08-12T01:02:32.319Z,100.00
2017-08-12T01:05:53.573Z,100.00
2017-08-12T01:05:54.612Z,100.00
2017-08-12T01:05:55.212Z,100.00
2017-08-12T01:08:46.745Z,100.00
2017-08-12T01:08:47.763Z,100.00
2017-08-12T01:08:48.364Z,100.00
2017-08-12T01:11:46.468Z,100.00
2017-08-12T01:11:47.075Z,100.00
2017-08-12T01:11:47.683Z,100.00
2017-08-12T01:15:06.788Z,100.00
2017-08-12T01:15:07.474Z,100.00
2017-08-12T01:15:08.103Z,100.00
2017-08-12T01:17:51.536Z,100.00
2017-08-12T01:17:52.549Z,100.00
2017-08-12T01:17:53.155Z,100.00
2017-08-12T01:20:31.064Z,100.00
2017-08-12T01:20:31.675Z,100.00
2017-08-12T01:20:32.283Z,100.00
2017-08-12T01:23:53.608Z,100.00
2017-08-12T01:23:54.622Z,100.00
2017-08-12T01:23:55.229Z,100.00
2017-08-12T01:27:07.227Z,100.00
2017-08-12T01:27:08.271Z,100.00
2017-08-12T01:27:08.879Z,100.00
2017-08-12T01:29:53.538Z,100.00
2017-08-12T01:29:54.145Z,100.00
2017-08-12T01:29:54.751Z,100.00
2017-08-12T01:32:31.887Z,100.00
2017-08-12T01:32:32.494Z,100.00
2017-08-12T01:32:33.101Z,100.00
2017-08-12T01:35:53.554Z,100.00
2017-08-12T01:35:54.570Z,100.00
2017-08-12T01:35:55.178Z,100.00
2017-08-12T01:38:31.590Z,100.00
2017-08-12T01:38:32.603Z,100.00
2017-08-12T01:38:33.311Z,100.00
2017-08-12T01:41:53.625Z,100.00
2017-08-12T01:41:54.827Z,100.00
2017-08-12T01:41:55.557Z,100.00
2017-08-12T01:44:40.891Z,100.00
2017-08-12T01:44:41.902Z,100.00
2017-08-12T01:44:42.511Z,100.00
2017-08-12T01:47:53.527Z,100.00
2017-08-12T01:47:54.539Z,100.00
2017-08-12T01:47:55.146Z,100.00
2017-08-12T01:50:41.022Z,100.00
2017-08-12T01:50:41.753Z,100.00
2017-08-12T01:50:42.398Z,100.00
2017-08-12T01:53:44.477Z,100.00
2017-08-12T01:53:45.490Z,100.00
2017-08-12T01:53:46.099Z,100.00
2017-08-12T01:56:41.161Z,100.00
2017-08-12T01:56:41.767Z,100.00
2017-08-12T01:56:42.373Z,100.00
2017-08-12T01:59:50.873Z,100.00
2017-08-12T01:59:51.885Z,100.00
2017-08-12T01:59:52.492Z,100.00
2017-08-12T02:00:30.877Z,100.00
2017-08-12T02:01:31.315Z,100.00
2017-08-12T02:02:31.357Z,100.00
2017-08-12T02:03:31.315Z,100.00
2017-08-12T02:04:31.346Z,100.00
2017-08-12T02:05:31.618Z,100.00
2017-08-12T02:06:31.445Z,100.00
2017-08-12T02:07:31.428Z,100.00
2017-08-12T02:08:31.656Z,100.00
2017-08-12T02:09:30.981Z,100.00
2017-08-12T02:10:30.931Z,100.00
2017-08-12T02:11:30.972Z,100.00
2017-08-12T02:12:31.641Z,100.00
2017-08-12T02:13:30.981Z,100.00
2017-08-12T02:14:30.989Z,100.00
2017-08-12T02:15:31.058Z,100.00
2017-08-12T02:16:31.039Z,100.00
2017-08-12T02:17:30.952Z,100.00
2017-08-12T02:18:30.978Z,100.00
2017-08-12T02:19:31.405Z,100.00
2017-08-12T02:20:31.346Z,100.00
2017-08-12T02:21:31.481Z,100.00
2017-08-12T02:22:31.806Z,100.00
2017-08-12T02:23:31.435Z,100.00
2017-08-12T02:24:31.405Z,100.00
2017-08-12T02:25:31.441Z,100.00
2017-08-12T02:26:30.984Z,100.00
2017-08-12T02:27:31.019Z,100.00
2017-08-12T02:28:30.989Z,100.00
2017-08-12T02:29:31.055Z,100.00
2017-08-12T02:30:31.288Z,100.00
2017-08-12T02:31:31.021Z,100.00
2017-08-12T02:32:31.060Z,100.00
2017-08-12T02:33:31.003Z,100.00
2017-08-12T02:34:31.444Z,100.00
2017-08-12T02:35:31.479Z,100.00
2017-08-12T02:36:31.426Z,100.00
2017-08-12T02:37:31.460Z,100.00
2017-08-12T02:38:31.517Z,100.00
2017-08-12T02:39:31.445Z,100.00
2017-08-12T02:40:31.482Z,100.00
2017-08-12T02:41:31.422Z,100.00
2017-08-12T02:42:31.058Z,100.00
2017-08-12T02:43:31.096Z,100.00
2017-08-12T02:44:31.023Z,100.00
2017-08-12T02:45:31.073Z,100.00
2017-08-12T02:46:31.101Z,100.00
2017-08-12T02:47:31.032Z,100.00
2017-08-12T02:48:31.096Z,100.00
2017-08-12T02:49:31.022Z,100.00
2017-08-12T02:50:31.472Z,100.00
2017-08-12T02:51:31.496Z,100.00
2017-08-12T02:52:31.482Z,100.00
2017-08-12T02:53:31.435Z,100.00
2017-08-12T02:54:31.494Z,100.00
2017-08-12T02:55:31.527Z,100.00
2017-08-12T02:56:31.576Z,100.00
2017-08-12T02:57:31.637Z,100.00
2017-08-12T02:58:31.479Z,100.00
2017-08-12T02:59:31.037Z,100.00
2017-08-12T03:00:31.074Z,100.00
2017-08-12T03:01:31.117Z,100.00
2017-08-12T03:02:31.145Z,100.00
2017-08-12T03:03:31.114Z,100.00
2017-08-12T03:04:31.141Z,100.00
2017-08-12T03:05:31.070Z,100.00
2017-08-12T03:06:31.568Z,100.00
2017-08-12T03:07:31.813Z,100.00
2017-08-12T03:08:31.138Z,100.00
2017-08-12T03:09:31.572Z,100.00
2017-08-12T03:10:31.555Z,100.00
2017-08-12T03:11:31.597Z,100.00
2017-08-12T03:12:31.548Z,100.00
2017-08-12T03:13:31.481Z,100.00
2017-08-12T03:14:49.261Z,100.00
2017-08-12T03:16:15.862Z,100.00
2017-08-12T03:16:16.878Z,100.00
2017-08-12T03:16:31.111Z,100.00
2017-08-12T03:17:31.944Z,100.00
2017-08-12T03:18:31.224Z,100.00
2017-08-12T03:19:31.153Z,100.00
2017-08-12T03:20:31.207Z,100.00
2017-08-12T03:21:31.240Z,100.00
2017-08-12T03:22:31.176Z,100.00
2017-08-12T03:23:31.203Z,100.00
2017-08-12T03:24:31.150Z,100.00
2017-08-12T03:25:31.628Z,100.00
2017-08-12T03:26:31.652Z,100.00
2017-08-12T03:27:31.904Z,100.00
2017-08-12T03:28:31.638Z,100.00
2017-08-12T03:29:31.571Z,100.00
2017-08-12T03:30:31.678Z,100.00
2017-08-12T03:31:31.720Z,100.00
2017-08-12T03:32:31.707Z,100.00
2017-08-12T03:33:31.651Z,100.00
2017-08-12T03:34:31.177Z,100.00
2017-08-12T03:35:31.735Z,100.00
2017-08-12T03:36:31.173Z,100.00
2017-08-12T03:37:31.224Z,100.00
2017-08-12T03:38:31.254Z,100.00
2017-08-12T03:39:31.284Z,100.00
2017-08-12T03:40:31.224Z,100.00
2017-08-12T03:41:31.472Z,100.00
2017-08-12T03:42:31.210Z,100.00
2017-08-12T03:43:31.640Z,100.00
2017-08-12T03:44:31.675Z,100.00
2017-08-12T03:45:31.750Z,100.00
2017-08-12T03:46:31.627Z,100.00
2017-08-12T03:47:31.957Z,100.00
2017-08-12T03:48:31.611Z,100.00
2017-08-12T03:49:31.648Z,100.00
2017-08-12T03:50:31.198Z,100.00
2017-08-12T03:51:31.236Z,100.00
2017-08-12T03:52:31.884Z,100.00
2017-08-12T03:53:31.322Z,100.00
2017-08-12T03:54:31.256Z,100.00
2017-08-12T03:55:31.382Z,100.00
2017-08-12T03:56:31.221Z,100.00
2017-08-12T03:57:31.363Z,100.00
2017-08-12T03:58:31.391Z,100.00
2017-08-12T03:59:31.243Z,100.00
2017-08-12T04:00:31.703Z,100.00
2017-08-12T04:01:31.990Z,100.00
2017-08-12T04:02:31.664Z,100.00
2017-08-12T04:03:31.691Z,100.00
2017-08-12T04:04:31.724Z,100.00
2017-08-12T04:05:31.708Z,100.00
2017-08-12T04:06:31.742Z,100.00
2017-08-12T04:07:31.981Z,100.00
2017-08-12T04:08:31.278Z,100.00
2017-08-12T04:09:31.319Z,100.00
2017-08-12T04:10:31.346Z,100.00
2017-08-12T04:11:31.281Z,100.00
2017-08-12T04:12:31.349Z,100.00
2017-08-12T04:13:31.376Z,100.00
2017-08-12T04:14:31.298Z,100.00
2017-08-12T04:15:31.718Z,100.00
2017-08-12T04:16:32.048Z,100.00
2017-08-12T04:17:31.397Z,100.00
2017-08-12T04:18:31.722Z,100.00
2017-08-12T04:19:31.759Z,100.00
2017-08-12T04:20:31.780Z,100.00
2017-08-12T04:21:31.750Z,100.00
2017-08-12T04:22:31.912Z,100.00
2017-08-12T04:23:31.694Z,100.00
2017-08-12T04:24:31.782Z,100.00
2017-08-12T04:25:31.792Z,100.00
2017-08-12T04:26:31.314Z,100.00
2017-08-12T04:27:31.325Z,100.00
2017-08-12T04:28:31.464Z,100.00
2017-08-12T04:29:31.376Z,100.00
2017-08-12T04:30:31.326Z,100.00
2017-08-12T04:31:31.633Z,100.00
2017-08-12T04:32:31.375Z,100.00
2017-08-12T04:33:31.816Z,99.88
2017-08-12T04:34:31.798Z,99.17
2017-08-12T04:35:31.828Z,98.45
2017-08-12T04:36:31.831Z,98.49
2017-08-12T04:37:31.877Z,98.49
2017-08-12T04:38:31.842Z,98.79
2017-08-12T04:39:31.808Z,100.00
2017-08-12T04:40:31.777Z,100.00
2017-08-12T04:41:31.760Z,97.58
2017-08-12T04:42:32.023Z,97.35
2017-08-12T04:43:31.420Z,97.78
2017-08-12T04:44:31.468Z,97.45
2017-08-12T04:45:31.473Z,95.15
2017-08-12T04:46:32.127Z,96.16
2017-08-12T04:47:31.690Z,93.02
2017-08-12T04:48:31.469Z,93.91
2017-08-12T04:49:31.416Z,94.03
2017-08-12T04:50:31.872Z,96.01
2017-08-12T04:51:31.942Z,93.57
2017-08-12T04:52:31.931Z,95.33
2017-08-12T04:53:31.814Z,95.56
2017-08-12T04:54:31.789Z,93.56
2017-08-12T04:55:31.873Z,96.27
2017-08-12T04:56:31.861Z,92.57
2017-08-12T04:57:32.251Z,92.95
2017-08-12T04:58:32.014Z,94.57
2017-08-12T04:59:31.389Z,96.03
2017-08-12T05:00:31.992Z,94.73
2017-08-12T05:01:31.505Z,96.54
2017-08-12T05:02:31.605Z,96.92
2017-08-12T05:03:31.590Z,96.51
2017-08-12T05:04:31.569Z,95.38
2017-08-12T05:05:31.452Z,94.40
2017-08-12T05:06:31.509Z,95.89
2017-08-12T05:07:31.836Z,94.96
2017-08-12T05:08:31.512Z,96.01
2017-08-12T05:09:31.870Z,98.15
2017-08-12T05:10:31.858Z,98.17
2017-08-12T05:11:31.995Z,97.65
2017-08-12T05:12:32.289Z,98.67
2017-08-12T05:13:31.886Z,99.60
2017-08-12T05:14:32.134Z,98.51
2017-08-12T05:15:31.880Z,96.49
2017-08-12T05:16:31.922Z,97.08
2017-08-12T05:17:32.171Z,98.92
2017-08-12T05:18:31.492Z,99.00
2017-08-12T05:19:31.566Z,99.37
2017-08-12T05:20:31.554Z,99.41
2017-08-12T05:21:31.669Z,100.00
2017-08-12T05:22:31.513Z,98.88
2017-08-12T05:23:31.550Z,98.05
2017-08-12T05:24:31.591Z,99.56
2017-08-12T05:25:31.557Z,100.00
2017-08-12T05:26:31.499Z,100.00
2017-08-12T05:27:31.974Z,100.00
2017-08-12T05:28:31.952Z,99.97
2017-08-12T05:29:31.960Z,100.00
2017-08-12T05:30:31.967Z,100.00
2017-08-12T05:31:32.034Z,100.00
2017-08-12T05:32:32.306Z,100.00
2017-08-12T05:33:31.493Z,100.00
2017-08-12T05:34:31.554Z,99.21
2017-08-12T05:35:31.525Z,100.00
2017-08-12T05:36:31.565Z,100.00
2017-08-12T05:37:32.395Z,100.00
2017-08-12T05:38:31.563Z,98.89
2017-08-12T05:39:31.583Z,98.90
2017-08-12T05:40:31.612Z,98.18
2017-08-12T05:41:31.642Z,98.02
2017-08-12T05:42:31.579Z,96.26
2017-08-12T05:43:31.960Z,95.38
2017-08-12T05:44:32.032Z,94.26
2017-08-12T05:45:32.018Z,96.19
2017-08-12T05:46:32.294Z,94.93
2017-08-12T05:47:32.028Z,94.24
2017-08-12T05:48:32.103Z,92.33
2017-08-12T05:49:32.005Z,93.07
2017-08-12T05:50:32.023Z,91.96
2017-08-12T05:51:31.626Z,93.39
2017-08-12T05:52:32.306Z,93.09
2017-08-12T05:53:31.619Z,91.66
2017-08-12T05:54:31.603Z,90.50
2017-08-12T05:55:31.602Z,88.64
2017-08-12T05:56:31.592Z,92.00
2017-08-12T05:57:31.756Z,90.52
2017-08-12T05:58:31.614Z,89.54
2017-08-12T05:59:32.005Z,90.19
2017-08-12T06:00:32.057Z,88.04
2017-08-12T06:01:32.031Z,86.28
2017-08-12T06:02:32.380Z,86.69
2017-08-12T06:03:32.015Z,87.17
2017-08-12T06:04:32.080Z,84.81
2017-08-12T06:05:32.045Z,87.58
2017-08-12T06:06:32.042Z,87.93
2017-08-12T06:07:32.313Z,88.14
2017-08-12T06:08:31.657Z,89.20
2017-08-12T06:09:31.718Z,91.19
2017-08-12T06:10:31.660Z,90.53
2017-08-12T06:11:31.651Z,89.43
2017-08-12T06:12:32.355Z,89.92
2017-08-12T06:13:31.706Z,91.78
2017-08-12T06:14:31.672Z,89.56
2017-08-12T06:15:31.638Z,91.89
2017-08-12T06:16:32.290Z,92.60
2017-08-12T06:17:32.159Z,92.32
2017-08-12T06:18:32.246Z,93.17
2017-08-12T06:19:32.056Z,94.14
2017-08-12T06:20:32.092Z,91.82
2017-08-12T06:21:32.350Z,91.76
2017-08-12T06:22:32.100Z,92.43
2017-08-12T06:23:32.051Z,92.21
2017-08-12T06:24:32.108Z,90.24
2017-08-12T06:25:31.660Z,92.77
2017-08-12T06:26:31.726Z,92.93
2017-08-12T06:27:32.379Z,92.74
2017-08-12T06:28:31.743Z,92.34
2017-08-12T06:29:31.761Z,91.66
2017-08-12T06:30:31.747Z,93.03
2017-08-12T06:31:31.712Z,94.16
2017-08-12T06:32:31.709Z,94.75
2017-08-12T06:33:31.679Z,91.69
2017-08-12T06:34:32.182Z,93.01
2017-08-12T06:35:32.115Z,93.47
2017-08-12T06:36:32.210Z,93.14
2017-08-12T06:37:32.213Z,93.44
2017-08-12T06:38:32.299Z,93.13
2017-08-12T06:39:32.208Z,93.63
2017-08-12T06:40:39.314Z,96.27
2017-08-12T06:41:31.703Z,95.71
2017-08-12T06:42:32.170Z,94.10
2017-08-12T06:43:31.757Z,93.47
2017-08-12T06:44:32.346Z,94.67
2017-08-12T06:45:31.773Z,89.28
2017-08-12T06:46:32.445Z,90.73
2017-08-12T06:47:31.985Z,90.82
2017-08-12T06:48:31.758Z,93.78
2017-08-12T06:49:31.808Z,92.42
2017-08-12T06:50:31.814Z,93.17
2017-08-12T06:51:32.223Z,94.55
2017-08-12T06:52:32.194Z,92.13
2017-08-12T06:53:32.143Z,94.10
2017-08-12T06:54:32.150Z,94.24
2017-08-12T06:55:32.238Z,91.42
2017-08-12T06:56:32.207Z,90.37
2017-08-12T06:57:32.607Z,90.90
2017-08-12T06:58:32.258Z,92.21
2017-08-12T06:59:32.199Z,90.62
2017-08-12T07:00:31.831Z,91.22
2017-08-12T07:01:32.490Z,93.50
2017-08-12T07:02:32.615Z,92.29
2017-08-12T07:03:31.806Z,91.54
2017-08-12T07:04:31.746Z,92.89
2017-08-12T07:05:31.840Z,93.55
2017-08-12T07:06:31.866Z,92.54
2017-08-12T07:07:31.815Z,92.67
2017-08-12T07:08:31.768Z,91.85
2017-08-12T07:09:32.184Z,91.79
2017-08-12T07:10:32.248Z,90.24
2017-08-12T07:11:32.265Z,90.36
2017-08-12T07:12:32.499Z,90.42
2017-08-12T07:13:32.185Z,90.15
2017-08-12T07:14:32.194Z,93.02
2017-08-12T07:15:32.204Z,91.51
2017-08-12T07:16:32.439Z,91.46
2017-08-12T07:17:31.858Z,88.13
2017-08-12T07:18:31.862Z,89.85
2017-08-12T07:19:31.864Z,87.44
2017-08-12T07:20:32.018Z,89.08
2017-08-12T07:21:31.849Z,89.97
2017-08-12T07:22:31.948Z,88.02
2017-08-12T07:23:31.830Z,87.31
2017-08-12T07:24:31.818Z,87.36
2017-08-12T07:25:32.353Z,89.36
2017-08-12T07:26:32.210Z,91.49
2017-08-12T07:27:32.290Z,90.31
2017-08-12T07:28:32.333Z,87.77
2017-08-12T07:29:32.287Z,90.52
2017-08-12T07:30:32.364Z,88.80
2017-08-12T07:31:32.571Z,90.62
2017-08-12T07:32:32.324Z,90.58
2017-08-12T07:33:32.339Z,90.31
2017-08-12T07:34:32.314Z,90.28
2017-08-12T07:35:31.910Z,89.42
2017-08-12T07:36:31.884Z,89.55
2017-08-12T07:37:31.959Z,86.80
2017-08-12T07:38:31.918Z,89.66
2017-08-12T07:39:31.896Z,88.68
2017-08-12T07:40:31.932Z,89.47
2017-08-12T07:41:31.874Z,90.23
2017-08-12T07:42:36.860Z,91.46
2017-08-12T07:43:36.799Z,90.64
2017-08-12T07:44:32.401Z,90.04
2017-08-12T07:45:32.312Z,89.66
2017-08-12T07:46:32.404Z,91.87
2017-08-12T07:47:32.400Z,90.65
2017-08-12T07:48:32.367Z,91.59
2017-08-12T07:49:32.321Z,88.69
2017-08-12T07:50:32.362Z,89.10
2017-08-12T07:51:32.293Z,89.85
2017-08-12T07:52:32.650Z,87.42
2017-08-12T07:53:31.924Z,90.11
2017-08-12T07:54:31.929Z,90.00
2017-08-12T07:55:32.816Z,86.71
2017-08-12T07:56:31.901Z,88.78
2017-08-12T07:57:33.137Z,86.15
2017-08-12T07:58:31.934Z,89.17
2017-08-12T07:59:31.982Z,87.40
2017-08-12T08:00:31.950Z,87.48
2017-08-12T08:01:32.503Z,85.99
2017-08-12T08:02:32.768Z,87.98
2017-08-12T08:03:32.398Z,86.90
2017-08-12T08:04:32.566Z,87.91
2017-08-12T08:05:32.408Z,86.99
2017-08-12T08:06:32.384Z,84.81
2017-08-12T08:07:32.460Z,87.52
2017-08-12T08:08:32.424Z,87.89
2017-08-12T08:09:32.491Z,86.62
2017-08-12T08:10:32.430Z,87.63
2017-08-12T08:11:31.993Z,89.25
2017-08-12T08:12:31.952Z,89.89
2017-08-12T08:13:31.998Z,83.63
2017-08-12T08:14:31.960Z,87.95
2017-08-12T08:15:32.131Z,85.92
2017-08-12T08:16:32.290Z,86.13
2017-08-12T08:17:32.070Z,85.43
2017-08-12T08:18:32.073Z,83.46
2017-08-12T08:19:32.048Z,84.12
2017-08-12T08:20:32.434Z,81.51
2017-08-12T08:21:32.437Z,83.03
2017-08-12T08:22:32.728Z,84.41
2017-08-12T08:23:32.419Z,85.13
2017-08-12T08:24:32.488Z,86.82
2017-08-12T08:25:32.588Z,83.49
2017-08-12T08:26:32.947Z,84.59
2017-08-12T08:27:32.588Z,83.06
2017-08-12T08:28:32.539Z,83.26
2017-08-12T08:29:32.495Z,82.70
2017-08-12T08:30:32.058Z,83.61
2017-08-12T08:31:32.168Z,85.63
2017-08-12T08:32:32.071Z,83.46
2017-08-12T08:33:32.073Z,84.28
2017-08-12T08:34:32.098Z,83.98
2017-08-12T08:35:32.082Z,80.90
2017-08-12T08:36:32.026Z,78.08
2017-08-12T08:37:32.058Z,80.86
2017-08-12T08:38:32.124Z,78.59
2017-08-12T08:39:32.096Z,78.93
2017-08-12T08:40:32.509Z,79.58
2017-08-12T08:41:32.473Z,81.38
2017-08-12T08:42:32.578Z,76.94
2017-08-12T08:43:32.472Z,78.56
2017-08-12T08:44:32.556Z,76.83
2017-08-12T08:45:32.571Z,78.61
2017-08-12T08:46:32.068Z,78.61
2017-08-12T08:47:32.098Z,77.48
2017-08-12T08:48:32.124Z,76.88
2017-08-12T08:49:32.134Z,76.13
2017-08-12T08:50:32.179Z,77.11
2017-08-12T08:51:32.140Z,74.80
2017-08-12T08:52:32.150Z,75.23
2017-08-12T08:53:32.144Z,71.47
2017-08-12T08:54:32.187Z,74.03
2017-08-12T08:55:32.633Z,76.54
2017-08-12T08:56:32.589Z,76.50
2017-08-12T08:57:32.612Z,76.32
2017-08-12T08:58:32.690Z,75.00
2017-08-12T08:59:32.505Z,73.13
2017-08-12T09:00:32.640Z,69.56
2017-08-12T09:01:32.875Z,70.86
2017-08-12T09:02:32.688Z,74.08
2017-08-12T09:03:32.616Z,73.53
2017-08-12T09:04:32.134Z,69.01
2017-08-12T09:05:32.178Z,71.75
2017-08-12T09:06:32.102Z,72.92
2017-08-12T09:07:32.151Z,74.23
2017-08-12T09:08:32.161Z,70.58
2017-08-12T09:09:32.171Z,72.37
2017-08-12T09:10:32.208Z,68.08
2017-08-12T09:11:32.200Z,69.84
2017-08-12T09:12:32.977Z,73.34
2017-08-12T09:13:32.239Z,69.63
2017-08-12T09:14:32.612Z,78.85
2017-08-12T09:15:32.567Z,69.62
2017-08-12T09:16:32.999Z,67.49
2017-08-12T09:17:33.036Z,64.53
2017-08-12T09:18:32.831Z,65.48
2017-08-12T09:19:32.702Z,61.91
2017-08-12T09:20:32.736Z,64.82
2017-08-12T09:21:32.244Z,63.63
2017-08-12T09:22:32.778Z,62.98
2017-08-12T09:23:32.336Z,63.46
2017-08-12T09:24:32.325Z,68.82
2017-08-12T09:25:32.362Z,64.89
2017-08-12T09:26:32.237Z,66.02
2017-08-12T09:27:32.617Z,69.90
2017-08-12T09:28:32.303Z,66.86
2017-08-12T09:29:32.271Z,68.39
2017-08-12T09:30:35.183Z,65.46
2017-08-12T09:33:08.116Z,68.93
2017-08-12T09:33:08.722Z,68.58
2017-08-12T09:33:32.228Z,65.91
2017-08-12T09:37:04.588Z,62.21
2017-08-12T09:37:05.599Z,60.41
2017-08-12T09:37:06.208Z,60.17
2017-08-12T09:37:32.211Z,61.00
2017-08-12T09:38:32.771Z,60.72
2017-08-12T09:39:32.904Z,59.38
2017-08-12T09:40:32.373Z,59.15
2017-08-12T09:41:32.392Z,61.96
2017-08-12T09:42:32.268Z,62.94
2017-08-12T09:43:32.524Z,61.89
2017-08-12T09:44:32.268Z,66.90
2017-08-12T09:45:32.297Z,68.50
2017-08-12T09:46:32.764Z,69.09
2017-08-12T09:47:32.747Z,68.05
2017-08-12T09:48:32.930Z,69.76
2017-08-12T09:49:32.711Z,70.33
2017-08-12T09:50:32.689Z,66.12
2017-08-12T09:51:32.754Z,65.10
2017-08-12T09:52:32.701Z,62.89
2017-08-12T09:53:32.741Z,61.77
2017-08-12T09:54:32.697Z,61.52
2017-08-12T09:55:32.737Z,60.59
2017-08-12T09:56:32.376Z,54.94
2017-08-12T09:57:32.306Z,55.65
2017-08-12T09:58:32.434Z,54.77
2017-08-12T09:59:32.353Z,58.93
2017-08-12T10:00:32.304Z,57.68
2017-08-12T10:01:32.349Z,57.91
2017-08-12T10:02:32.400Z,59.36
2017-08-12T10:03:32.336Z,58.67
2017-08-12T10:04:32.750Z,56.67
2017-08-12T10:05:32.749Z,59.71
2017-08-12T10:06:32.727Z,60.43
2017-08-12T10:07:32.869Z,60.94
2017-08-12T10:08:32.763Z,63.42
2017-08-12T10:09:32.718Z,61.36
2017-08-12T10:10:32.755Z,64.32
2017-08-12T10:11:32.815Z,66.42
2017-08-12T10:12:32.810Z,63.34
2017-08-12T10:13:33.020Z,71.82
2017-08-12T10:14:32.315Z,65.87
2017-08-12T10:15:32.324Z,62.51
2017-08-12T10:16:32.334Z,71.67
2017-08-12T10:17:32.325Z,66.15
2017-08-12T10:18:32.704Z,68.26
2017-08-12T10:19:32.375Z,68.42
2017-08-12T10:20:32.776Z,70.77
2017-08-12T10:21:32.860Z,70.99
2017-08-12T10:22:32.777Z,68.22
2017-08-12T10:23:32.826Z,72.25
2017-08-12T10:24:32.775Z,71.74
2017-08-12T10:25:32.811Z,73.41
2017-08-12T10:26:32.842Z,72.96
2017-08-12T10:27:32.813Z,72.81
2017-08-12T10:28:32.816Z,72.49
2017-08-12T10:29:32.809Z,73.10
2017-08-12T10:30:32.400Z,73.47
2017-08-12T10:31:32.377Z,71.26
2017-08-12T10:32:32.412Z,72.75
2017-08-12T10:33:32.433Z,75.03
2017-08-12T10:34:32.444Z,72.69
2017-08-12T10:35:32.452Z,72.74
2017-08-12T10:36:32.454Z,73.15
2017-08-12T10:37:32.439Z,74.03
2017-08-12T10:38:33.062Z,73.54
2017-08-12T10:39:32.786Z,74.65
2017-08-12T10:40:32.883Z,75.06
2017-08-12T10:41:32.864Z,75.29
2017-08-12T10:42:32.906Z,74.91
2017-08-12T10:43:32.861Z,72.10
2017-08-12T10:44:32.842Z,70.99
2017-08-12T10:45:32.838Z,72.22
2017-08-12T10:46:32.393Z,74.66
2017-08-12T10:47:32.406Z,76.84
2017-08-12T10:48:32.506Z,73.71
2017-08-12T10:49:32.521Z,72.65
2017-08-12T10:50:32.477Z,74.80
2017-08-12T10:51:32.435Z,72.27
2017-08-12T10:52:32.596Z,74.33
2017-08-12T10:53:32.526Z,71.05
2017-08-12T10:54:32.425Z,70.54
2017-08-12T10:55:32.886Z,73.71
2017-08-12T10:56:32.902Z,70.75
2017-08-12T10:57:32.845Z,69.68
2017-08-12T10:58:32.927Z,70.83
2017-08-12T10:59:32.850Z,72.31
2017-08-12T11:00:33.129Z,72.17
2017-08-12T11:01:32.859Z,72.24
2017-08-12T11:02:32.842Z,69.92
2017-08-12T11:03:32.938Z,67.63
2017-08-12T11:04:32.437Z,66.21
2017-08-12T11:05:32.520Z,67.87
2017-08-12T11:06:32.516Z,67.63
2017-08-12T11:07:32.554Z,66.57
2017-08-12T11:08:32.521Z,67.64
2017-08-12T11:09:32.565Z,69.32
2017-08-12T11:10:32.449Z,68.94
2017-08-12T11:11:32.518Z,70.30
2017-08-12T11:12:32.552Z,67.65
2017-08-12T11:13:32.991Z,66.30
2017-08-12T11:14:33.057Z,69.96
2017-08-12T11:15:32.954Z,66.43
2017-08-12T11:16:32.984Z,65.54
2017-08-12T11:17:32.947Z,66.54
2017-08-12T11:18:32.964Z,64.42
2017-08-12T11:19:32.964Z,63.56
2017-08-12T11:20:32.944Z,65.22
2017-08-12T11:21:32.953Z,64.24
2017-08-12T11:22:32.538Z,64.92
2017-08-12T11:23:32.590Z,64.36
2017-08-12T11:24:32.553Z,63.50
2017-08-12T11:25:32.561Z,61.09
2017-08-12T11:26:32.632Z,58.68
2017-08-12T11:27:32.609Z,63.00
2017-08-12T11:28:32.573Z,59.28
2017-08-12T11:29:32.708Z,61.56
2017-08-12T11:30:32.567Z,58.60
2017-08-12T11:31:33.051Z,60.08
2017-08-12T11:32:33.047Z,60.97
2017-08-12T11:33:32.919Z,60.80
2017-08-12T11:34:33.025Z,60.71
2017-08-12T11:35:33.016Z,64.39
2017-08-12T11:36:33.007Z,60.15
2017-08-12T11:37:33.000Z,63.23
2017-08-12T11:38:33.102Z,65.06
2017-08-12T11:39:33.036Z,63.95
2017-08-12T11:40:32.607Z,64.20
2017-08-12T11:41:32.564Z,68.27
2017-08-12T11:42:32.632Z,68.53
2017-08-12T11:43:32.669Z,68.49
2017-08-12T11:44:32.648Z,66.93
2017-08-12T11:45:32.636Z,68.17
2017-08-12T11:46:32.639Z,66.39
2017-08-12T11:47:32.579Z,65.47
2017-08-12T11:48:33.001Z,64.18
2017-08-12T11:49:33.008Z,64.17
2017-08-12T11:50:33.088Z,65.55
2017-08-12T11:51:33.132Z,63.49
2017-08-12T11:52:33.097Z,62.27
2017-08-12T11:53:33.336Z,61.46
2017-08-12T11:54:33.088Z,61.21
2017-08-12T11:55:33.045Z,60.85
2017-08-12T11:56:32.615Z,60.60
2017-08-12T11:57:33.132Z,60.80
2017-08-12T11:58:32.654Z,61.50
2017-08-12T11:59:32.670Z,56.95
2017-08-12T12:00:32.627Z,57.68
2017-08-12T12:01:32.740Z,58.09
2017-08-12T12:02:32.642Z,58.72
2017-08-12T12:03:32.667Z,57.29
2017-08-12T12:04:33.100Z,57.72
2017-08-12T12:05:33.258Z,56.52
2017-08-12T12:06:33.141Z,58.31
2017-08-12T12:07:33.095Z,57.87
2017-08-12T12:08:33.269Z,57.20
2017-08-12T12:09:33.138Z,55.48
2017-08-12T12:10:33.102Z,55.61
2017-08-12T12:11:33.146Z,55.14
2017-08-12T12:12:33.148Z,55.98
2017-08-12T12:13:33.349Z,57.67
2017-08-12T12:14:33.341Z,56.35
2017-08-12T12:15:32.714Z,59.60
2017-08-12T12:16:33.371Z,62.06
2017-08-12T12:17:32.715Z,62.66
2017-08-12T12:18:33.578Z,61.36
2017-08-12T12:19:32.720Z,65.00
2017-08-12T12:20:32.738Z,66.79
2017-08-12T12:21:32.757Z,66.58
2017-08-12T12:22:33.154Z,64.55
2017-08-12T12:23:33.645Z,66.87
2017-08-12T12:24:32.717Z,65.42
2017-08-12T12:25:33.101Z,67.67
2017-08-12T12:26:33.170Z,66.98
2017-08-12T12:27:33.179Z,66.46
2017-08-12T12:28:34.885Z,65.58
2017-08-12T12:29:32.769Z,66.11
2017-08-12T12:30:33.143Z,67.15
2017-08-12T12:31:34.707Z,67.41
2017-08-12T12:32:32.768Z,64.65
2017-08-12T12:33:33.140Z,66.03
2017-08-12T12:34:34.662Z,64.95
2017-08-12T12:35:32.801Z,64.43
2017-08-12T12:36:33.173Z,63.46
2017-08-12T12:37:33.160Z,65.75
2017-08-12T12:38:33.246Z,63.38
2017-08-12T12:39:33.125Z,62.33
2017-08-12T12:40:33.208Z,65.80
2017-08-12T12:41:33.221Z,62.81
2017-08-12T12:42:33.166Z,64.45